Flight Track Log - Related Links

Times and Time Zones

All times are in EDT time to prevent confusion due to time zone crossing. See the AVN21 flight status page for this flight to view local times or setup timezone preferences in your user account.


Time Position Orientation Groundspeed Altitude Reporting Facility
EDT Latitude Longitude Course Direction KTS MPH feet Rate Location/Type
Sun 06:26:56 AM -27.3685 153.1378 28° Northeast 168 193 600  Level FlightAware ADS-B
Sun 06:27:04 AM -27.3626 153.1411 42° Northeast 175 201 1,100 2,211 Climbing Aus ATC (RADAR)
Sun 06:27:15 AM -27.3563 153.1474 43° Northeast 171 197 1,300 1,000 Climbing FlightAware ADS-B
Sun 06:27:34 AM -27.3447 153.1603 45° Northeast 195 224 1,600 1,610 Climbing FlightAware ADS-B
Sun 06:27:56 AM -27.3296 153.1759 42° Northeast 207 238 2,400 2,634 Climbing FlightAware ADS-B
Sun 06:28:15 AM -27.3201 153.1879 60° Northeast 203 234 3,400 2,550 Climbing FlightAware ADS-B
Sun 06:28:36 AM -27.3126 153.2053 73° East 213 245 4,100 1,463 Climbing FlightAware ADS-B
Sun 06:28:56 AM -27.3054 153.2359 75° East 244 281 4,400 1,367 Climbing FlightAware ADS-B
Sun 06:29:55 AM -27.2813 153.3197 72° East 307 353 5,900 2,129 Climbing FlightAware ADS-B
Sun 06:30:29 AM -27.2662 153.3714 72° East 309 356 7,700 3,273 Climbing Aus ATC (RADAR)
Sun 06:30:50 AM -27.2555 153.4095 72° East 314 361 8,900 2,954 Climbing FlightAware ADS-B
Sun 06:31:34 AM -27.2372 153.4726 72° East 317 365 10,900 2,644 Climbing Aus ATC (RADAR)
Sun 06:31:49 AM -27.2285 153.5040 72° East 334 384 11,500 2,571 Climbing FlightAware ADS-B
Sun 06:32:09 AM -27.2285 153.5040 72° East 342 394 12,400 2,684 Climbing FlightAware ADS-B
Sun 06:32:27 AM -27.2106 153.5661 72° East 349 402 13,200 2,400 Climbing FlightAware ADS-B
Sun 06:33:14 AM -27.1875 153.6429 72° East 358 412 15,000 2,289 Climbing Aus ATC (RADAR)
Sun 06:33:43 AM -27.1644 153.6927 58° Northeast 372 428 16,100 2,550 Climbing FlightAware ADS-B
Sun 06:33:54 AM -27.1533 153.7114 56° Northeast 378 435 16,700 2,694 Climbing FlightAware ADS-B
Sun 06:34:32 AM -27.1165 153.7734 56° Northeast 384 442 18,300 2,737 Climbing FlightAware ADS-B
Sun 06:34:51 AM -27.0938 153.8115 56° Northeast 388 447 19,300 2,550 Climbing FlightAware ADS-B
Sun 06:35:12 AM -27.0790 153.8362 56° Northeast 396 456 20,000 1,765 Climbing FlightAware ADS-B
Sun 06:35:42 AM -27.0444 153.8940 56° Northeast 409 471 20,800 1,700 Climbing FlightAware ADS-B
Sun 06:36:12 AM -27.0127 153.9472 57° Northeast 418 481 21,700 1,900 Climbing FlightAware ADS-B
Sun 06:36:42 AM -26.9796 154.0026 56° Northeast 430 495 22,700 1,967 Climbing FlightAware ADS-B
Sun 06:37:13 AM -26.9442 154.0619 56° Northeast 441 507 23,700 1,780 Climbing FlightAware ADS-B
Sun 06:38:13 AM -26.8740 154.1771 56° Northeast 453 521 25,400 1,537 Climbing Aus ATC (RADAR)
Sun 06:38:35 AM -26.8521 154.2152 56° Northeast 466 536 25,800 1,636 Climbing FlightAware ADS-B
Sun 06:39:08 AM -26.8079 154.2879 56° Northeast 468 539 26,900 1,692 Climbing Aus ATC (RADAR)
Sun 06:39:14 AM -26.8025 154.2977 56° Northeast 475 547 26,900 1,500 Level FlightAware ADS-B
Sun 06:39:48 AM -26.7581 154.3691 56° Northeast 474 545 27,900 1,463 Climbing Aus ATC (RADAR)
Sun 06:39:55 AM -26.7537 154.3786 56° Northeast 483 556 27,900 1,714 Level FlightAware ADS-B
Sun 06:40:58 AM -26.6706 154.5138 56° Northeast 480 552 29,900 1,959 Climbing Aus ATC (RADAR)
Sun 06:41:33 AM -26.6291 154.5851 56° Northeast 470 541 31,100 1,371 Climbing FlightAware ADS-B
Sun 06:42:08 AM -26.5847 154.6581 56° Northeast 482 555 31,500 900 Climbing FlightAware ADS-B
Sun 06:42:13 AM -26.5792 154.6673 56° Northeast 473 544 31,700 714 Climbing Aus ATC (RADAR)
Sun 06:42:50 AM -26.5318 154.7448 56° Northeast 493 567 32,000 880 Climbing FlightAware ADS-B
Sun 06:43:28 AM -26.4836 154.8252 56° Northeast 493 567 32,800 1,315 Climbing Aus ATC (RADAR)
Sun 06:44:03 AM -26.4377 154.8991 55° Northeast 494 568 33,600 1,120 Climbing Aus ATC (RADAR)
Sun 06:44:43 AM -26.3864 154.9848 56° Northeast 496 571 34,200 1,000 Climbing Aus ATC (RADAR)
Sun 06:45:03 AM -26.3600 155.0277 56° Northeast 499 574 34,600 1,000 Climbing Aus ATC (RADAR)
Sun 06:45:37 AM -26.3133 155.1023 55° Northeast 501 577 35,100 1,054 Climbing Aus ATC (RADAR)
Sun 06:46:17 AM -26.2606 155.1897 56° Northeast 506 582 35,900 1,440 Climbing Aus ATC (RADAR)
Sun 06:46:52 AM -26.2148 155.2646 56° Northeast 500 575 36,900 1,543 Climbing Aus ATC (RADAR)
Sun 06:47:27 AM -26.1698 155.3389 56° Northeast 494 568 37,700 1,350 Climbing Aus ATC (RADAR)
Sun 06:48:12 AM -26.1114 155.4316 55° Northeast 485 558 38,700 1,125 Climbing Aus ATC (RADAR)
Sun 06:48:47 AM -26.0666 155.5033 55° Northeast 481 554 39,200 429 Climbing Aus ATC (RADAR)
Sun 06:49:22 AM -26.0224 155.5760 56° Northeast 481 554 39,200  Level Aus ATC (RADAR)
Sun 06:50:02 AM -25.9716 155.6590 56° Northeast 482 555 39,200  Level Aus ATC (RADAR)
Sun 06:50:37 AM -25.9266 155.7309 55° Northeast 481 554 39,200  Level Aus ATC (RADAR)
Sun 06:51:12 AM -25.8817 155.8031 55° Northeast 482 555 39,200  Level Aus ATC (RADAR)
Sun 06:51:42 AM -25.8432 155.8648 55° Northeast 481 554 39,200  Level Aus ATC (RADAR)
Sun 06:52:17 AM -25.7976 155.9356 54° Northeast 479 551 39,200  Level Aus ATC (RADAR)
Sun 06:53:07 AM -25.7325 156.0369 55° Northeast 479 551 39,200  Level Aus ATC (RADAR)
Sun 06:53:27 AM -25.7075 156.0783 56° Northeast 479 551 39,200 -133 Level Aus ATC (RADAR)
Sun 06:53:52 AM -25.6760 156.1308 56° Northeast 478 550 39,100  Descending Aus ATC (RADAR)
Sun 06:54:22 AM -25.6399 156.1940 58° Northeast 478 550 39,200  Climbing Aus ATC (RADAR)
Sun 06:55:12 AM -25.5792 156.2990 57° Northeast 479 551 39,100  Descending Aus ATC (RADAR)
Sun 06:55:42 AM -25.5431 156.3621 58° Northeast 480 552 39,200 -92 Climbing Aus ATC (RADAR)
Sun 06:56:17 AM -25.5004 156.4359 57° Northeast 481 554 39,000 -171 Descending Aus ATC (RADAR)
Sun 06:56:52 AM -25.4572 156.5092 57° Northeast 481 554 39,000  Level Aus ATC (RADAR)
Sun 06:57:27 AM -25.4140 156.5827 57° Northeast 482 555 39,000  Level Aus ATC (RADAR)
Sun 06:58:16 AM -25.3517 156.6875 57° Northeast 483 556 39,000  Level Aus ATC (RADAR)
Sun 06:58:41 AM -25.3200 156.7395 56° Northeast 483 556 39,000  Level Aus ATC (RADAR)
Sun 06:59:16 AM -25.2765 156.8135 57° Northeast 484 557 39,000  Level Aus ATC (RADAR)
Sun 06:59:56 AM -25.2254 156.8971 56° Northeast 485 558 39,000  Level Aus ATC (RADAR)
Sun 07:00:16 AM -25.1994 156.9386 55° Northeast 486 559 39,000  Level Aus ATC (RADAR)
Sun 07:00:57 AM -25.1472 157.0203 55° Northeast 485 558 39,000  Level Aus ATC (RADAR)
Sun 07:01:41 AM -25.0887 157.1141 55° Northeast 485 558 39,000  Level Aus ATC (RADAR)
Sun 07:02:16 AM -25.0451 157.1876 57° Northeast 485 558 39,000  Level Aus ATC (RADAR)
Sun 07:02:51 AM -25.0016 157.2620 57° Northeast 484 557 39,000  Level Aus ATC (RADAR)
Sun 07:03:01 AM -24.9893 157.2820 56° Northeast 484 557 39,000  Level Aus ATC (RADAR)
Sun 07:07:11 AM -24.6540 157.8443 57° Northeast 39,000  Level Aus ATC (Calculated)
Sun 07:08:51 AM -24.5277 158.0544 236° Southwest 39,000  Level Aus ATC (Calculated)
Sun 07:09:00 AM -24.7773 157.6414 236° Southwest  Level FlightAware Approximate
Sun 07:10:00 AM -24.6059 157.9262 236° Southwest  Level FlightAware Approximate
Sun 07:11:00 AM -24.6738 157.8145 236° Southwest  Level FlightAware Approximate
Sun 07:12:00 AM -24.7416 157.7028 236° Southwest  Level FlightAware Approximate
Sun 07:13:00 AM -24.8094 157.5909 236° Southwest  Level FlightAware Approximate
Sun 07:14:00 AM -24.8770 157.4789 236° Southwest  Level FlightAware Approximate
Sun 07:15:00 AM -24.9446 157.3668 236° Southwest  Level FlightAware Approximate
Sun 07:16:00 AM -25.0121 157.2546 236° Southwest  Level FlightAware Approximate
Sun 07:17:00 AM -25.0795 157.1422 236° Southwest  Level FlightAware Approximate
Sun 07:18:00 AM -25.1468 157.0298 237° Southwest  Level FlightAware Approximate
Sun 07:19:00 AM -25.2141 156.9171 237° Southwest  Level FlightAware Approximate
Sun 07:20:00 AM -25.2812 156.8044 237° Southwest  Level FlightAware Approximate
Sun 07:20:00 AM -23.6584 159.4686 236° Southwest 39,000  Level Aus ATC (Calculated)
Sun 07:21:00 AM -23.7273 159.3585 236° Southwest  Level FlightAware Approximate
Sun 07:22:00 AM -23.7961 159.2483 236° Southwest  Level FlightAware Approximate
Sun 07:22:13 AM -23.4833 159.7487 236° Southwest 39,000  Level Aus ATC (Calculated)
Sun 07:24:00 AM -23.6055 159.5542 236° Southwest  Level FlightAware Approximate
Sun 07:25:00 AM -23.6739 159.4450 236° Southwest  Level FlightAware Approximate
Sun 07:26:00 AM -23.7423 159.3357 236° Southwest  Level FlightAware Approximate
Sun 07:27:00 AM -23.8105 159.2263 236° Southwest  Level FlightAware Approximate
Sun 07:28:00 AM -23.7427 159.3360 57° Northeast  Level Estimated
Sun 07:29:00 AM -23.6760 159.4466 57° Northeast  Level FlightAware Approximate
Sun 07:30:00 AM -23.6093 159.5570 57° Northeast  Level FlightAware Approximate
Sun 07:31:00 AM -23.6760 159.4466 237° Southwest  Level FlightAware Approximate
Sun 07:31:50 AM -22.7025 160.9794 235° Southwest 39,000  Level Aus ATC (Calculated)
Sun 07:32:00 AM -23.6093 159.5570 57° Northeast  Level FlightAware Approximate
Sun 07:33:00 AM -22.7835 160.8538 235° Southwest  Level FlightAware Approximate
Sun 07:34:00 AM -22.8529 160.7460 235° Southwest  Level FlightAware Approximate
Sun 07:35:00 AM -22.4566 161.3611 235° Southwest 39,000  Level Aus ATC (Calculated)
Sun 07:35:00 AM -22.9222 160.6380 235° Southwest  Level FlightAware Approximate
Sun 07:36:00 AM -22.5262 161.2538 235° Southwest  Level FlightAware Approximate
Sun 07:37:00 AM -22.5958 161.1463 235° Southwest  Level FlightAware Approximate
Sun 07:38:00 AM -22.6653 161.0388 235° Southwest  Level FlightAware Approximate
Sun 07:39:00 AM -22.7347 160.9311 235° Southwest  Level FlightAware Approximate
Sun 07:40:00 AM -22.8041 160.8233 235° Southwest  Level FlightAware Approximate
Sun 07:41:00 AM -22.8734 160.7155 235° Southwest  Level FlightAware Approximate
Sun 07:42:00 AM -22.9426 160.6075 235° Southwest  Level FlightAware Approximate
Sun 07:43:00 AM -23.0117 160.4993 235° Southwest  Level FlightAware Approximate
Sun 07:44:00 AM -23.0808 160.3911 235° Southwest  Level FlightAware Approximate
Sun 07:45:00 AM -23.1498 160.2828 235° Southwest  Level FlightAware Approximate
Sun 07:45:01 AM -21.6173 162.6436 234° Southwest 39,000  Level Aus ATC (Calculated)
Sun 07:47:00 AM -21.7568 162.4330 234° Southwest  Level FlightAware Approximate
Sun 07:48:00 AM -21.8271 162.3266 235° Southwest  Level FlightAware Approximate
Sun 07:49:00 AM -21.8973 162.2202 235° Southwest  Level FlightAware Approximate
Sun 07:50:00 AM -21.9674 162.1136 235° Southwest  Level FlightAware Approximate
Sun 07:51:00 AM -22.0375 162.0070 235° Southwest  Level FlightAware Approximate
Sun 07:52:00 AM -22.1075 161.9002 235° Southwest  Level FlightAware Approximate
Sun 07:53:00 AM -22.1774 161.7934 235° Southwest  Level FlightAware Approximate
Sun 07:54:00 AM -22.2472 161.6864 235° Southwest  Level FlightAware Approximate
Sun 07:55:00 AM -22.3170 161.5793 235° Southwest  Level FlightAware Approximate
Sun 07:56:00 AM -22.3867 161.4721 235° Southwest  Level FlightAware Approximate
Sun 07:57:00 AM -22.4563 161.3648 235° Southwest  Level FlightAware Approximate
Sun 07:58:00 AM -22.5259 161.2574 235° Southwest  Level FlightAware Approximate
Sun 07:59:00 AM -22.4567 161.3651 56° Northeast  Level Estimated
Sun 08:00:00 AM -22.3871 161.4724 55° Northeast  Level FlightAware Approximate
Sun 08:01:00 AM -22.3174 161.5796 55° Northeast  Level FlightAware Approximate
Sun 08:02:00 AM -22.2476 161.6867 55° Northeast  Level FlightAware Approximate
Sun 08:03:00 AM -22.1778 161.7937 55° Northeast  Level FlightAware Approximate
Sun 08:04:00 AM -22.1078 161.9005 55° Northeast  Level FlightAware Approximate
Sun 08:05:00 AM -22.0379 162.0073 55° Northeast  Level FlightAware Approximate
Sun 08:06:00 AM -21.9678 162.1139 55° Northeast  Level FlightAware Approximate
Sun 08:07:00 AM -21.8977 162.2205 55° Northeast  Level FlightAware Approximate
Sun 08:08:00 AM -21.8275 162.3269 55° Northeast  Level FlightAware Approximate
Sun 08:09:00 AM -21.7572 162.4333 55° Northeast  Level FlightAware Approximate
Sun 08:10:00 AM -21.6869 162.5395 55° Northeast  Level FlightAware Approximate
Sun 08:11:00 AM -21.6165 162.6456 55° Northeast  Level FlightAware Approximate
Sun 08:12:00 AM -21.5460 162.7517 54° Northeast  Level FlightAware Approximate
Sun 08:13:00 AM -21.4755 162.8576 54° Northeast  Level FlightAware Approximate
Sun 08:14:00 AM -21.4049 162.9634 54° Northeast  Level FlightAware Approximate
Sun 08:15:00 AM -21.3342 163.0692 54° Northeast  Level FlightAware Approximate
Sun 08:16:00 AM -21.4049 162.9634 234° Southwest  Level FlightAware Approximate
Sun 08:17:00 AM -21.3342 163.0692 54° Northeast  Level FlightAware Approximate
Sun 08:18:00 AM -21.4049 162.9634 234° Southwest  Level FlightAware Approximate
Sun 08:19:00 AM -21.3342 163.0692 54° Northeast  Level FlightAware Approximate
Sun 08:20:00 AM -21.4049 162.9634 234° Southwest  Level FlightAware Approximate
Sun 08:21:00 AM -21.3342 163.0692 54° Northeast  Level FlightAware Approximate
Sun 08:22:00 AM -21.4049 162.9634 234° Southwest  Level FlightAware Approximate
Sun 08:23:00 AM -21.3342 163.0692 54° Northeast  Level FlightAware Approximate
Sun 08:24:00 AM -21.4049 162.9634 234° Southwest  Level FlightAware Approximate
Sun 08:25:00 AM -21.3342 163.0692 54° Northeast  Level FlightAware Approximate
Sun 08:26:00 AM -21.4049 162.9634 234° Southwest  Level FlightAware Approximate
Sun 08:27:00 AM -21.3342 163.0692 54° Northeast  Level FlightAware Approximate
Sun 08:28:00 AM -21.4049 162.9634 234° Southwest  Level FlightAware Approximate
Sun 08:29:00 AM -21.3342 163.0692 54° Northeast  Level FlightAware Approximate
Sun 08:30:00 AM -21.4049 162.9634 234° Southwest  Level FlightAware Approximate
Sun 08:31:00 AM -21.3633 163.0253 54° Northeast  Level FlightAware Approximate
Sun 08:32:00 AM -21.2919 163.1305 54° Northeast  Level FlightAware Approximate
Sun 08:33:00 AM -21.2205 163.2355 54° Northeast  Level FlightAware Approximate
Sun 08:34:00 AM -21.1490 163.3404 54° Northeast  Level FlightAware Approximate
Sun 08:35:00 AM -21.0774 163.4453 54° Northeast  Level FlightAware Approximate
Sun 08:36:00 AM -21.0058 163.5500 54° Northeast  Level FlightAware Approximate
Sun 08:37:00 AM -20.9341 163.6546 54° Northeast  Level FlightAware Approximate
Sun 08:38:00 AM -20.8623 163.7592 54° Northeast  Level FlightAware Approximate
Sun 08:39:00 AM -20.7905 163.8636 54° Northeast  Level FlightAware Approximate
Sun 08:40:00 AM -20.7186 163.9680 54° Northeast  Level FlightAware Approximate
Sun 08:41:00 AM -20.6467 164.0722 54° Northeast  Level FlightAware Approximate
Sun 08:42:00 AM -20.5747 164.1763 54° Northeast  Level FlightAware Approximate
Sun 08:43:00 AM -20.5026 164.2804 54° Northeast  Level FlightAware Approximate
Sun 08:44:00 AM -20.4305 164.3843 53° Northeast  Level FlightAware Approximate
Sun 08:45:00 AM -20.3583 164.4882 53° Northeast  Level FlightAware Approximate
Sun 08:46:00 AM -20.2860 164.5919 53° Northeast  Level FlightAware Approximate
Sun 08:47:00 AM -20.2137 164.6956 53° Northeast  Level FlightAware Approximate
Sun 08:48:00 AM -20.1413 164.7991 53° Northeast  Level FlightAware Approximate
Sun 08:49:00 AM -20.0689 164.9026 53° Northeast  Level FlightAware Approximate
Sun 08:50:00 AM -19.9963 165.0059 53° Northeast  Level FlightAware Approximate
Sun 08:51:00 AM -19.9238 165.1092 53° Northeast  Level FlightAware Approximate
Sun 08:52:00 AM -19.8512 165.2124 53° Northeast  Level FlightAware Approximate
Sun 08:53:00 AM -19.7785 165.3155 53° Northeast  Level FlightAware Approximate
Sun 08:54:00 AM -19.7057 165.4185 53° Northeast  Level FlightAware Approximate
Sun 08:55:00 AM -19.6329 165.5213 53° Northeast  Level FlightAware Approximate
Sun 08:56:00 AM -19.5601 165.6241 53° Northeast  Level FlightAware Approximate
Sun 08:57:00 AM -19.4872 165.7269 53° Northeast  Level FlightAware Approximate
Sun 08:58:00 AM -19.4142 165.8295 53° Northeast  Level FlightAware Approximate
Sun 08:59:00 AM -19.3412 165.9320 53° Northeast  Level FlightAware Approximate
Sun 09:00:00 AM -19.2681 166.0344 53° Northeast  Level FlightAware Approximate
Sun 09:01:00 AM -19.1950 166.1367 53° Northeast  Level FlightAware Approximate
Sun 09:02:00 AM -19.1217 166.2390 53° Northeast  Level FlightAware Approximate
Sun 09:03:00 AM -19.0485 166.3412 53° Northeast  Level FlightAware Approximate
Sun 09:04:00 AM -18.9752 166.4432 53° Northeast  Level FlightAware Approximate
Sun 09:05:00 AM -18.9018 166.5452 53° Northeast  Level FlightAware Approximate
Sun 09:06:00 AM -18.8284 166.6471 53° Northeast  Level FlightAware Approximate
Sun 09:07:00 AM -18.7549 166.7489 53° Northeast  Level FlightAware Approximate
Sun 09:08:00 AM -18.6814 166.8506 53° Northeast  Level FlightAware Approximate
Sun 09:09:00 AM -18.6078 166.9522 53° Northeast  Level FlightAware Approximate
Sun 09:10:00 AM -18.5341 167.0537 53° Northeast  Level FlightAware Approximate
Sun 09:11:00 AM -18.4604 167.1552 53° Northeast  Level FlightAware Approximate
Sun 09:12:00 AM -18.3867 167.2565 53° Northeast  Level FlightAware Approximate
Sun 09:13:00 AM -18.3129 167.3578 52° Northeast  Level FlightAware Approximate
Sun 09:14:00 AM -18.2390 167.4590 52° Northeast  Level FlightAware Approximate
Sun 09:15:00 AM -18.1651 167.5601 52° Northeast  Level FlightAware Approximate
Sun 09:16:00 AM -18.0911 167.6611 52° Northeast  Level FlightAware Approximate
Sun 09:17:00 AM -18.0171 167.7620 52° Northeast  Level FlightAware Approximate
Sun 09:18:00 AM -17.9431 167.8629 52° Northeast  Level FlightAware Approximate
Sun 09:19:00 AM -17.8689 167.9637 52° Northeast  Level FlightAware Approximate
Sun 09:20:00 AM -17.7948 168.0643 52° Northeast  Level FlightAware Approximate

Login

Don't have an account? Register now (free) for customized features, flight alerts, and more!